createdAt,value
2019-02-09T00:00:32.080Z,69.92
2019-02-09T00:01:31.064Z,69.82
2019-02-09T00:02:31.055Z,69.71
2019-02-09T00:03:31.042Z,69.58
2019-02-09T00:04:31.028Z,69.17
2019-02-09T00:05:31.030Z,69.40
2019-02-09T00:06:31.009Z,69.20
2019-02-09T00:07:30.999Z,69.30
2019-02-09T00:08:30.988Z,69.30
2019-02-09T00:09:30.979Z,69.20
2019-02-09T00:10:30.973Z,69.20
2019-02-09T00:11:30.954Z,69.51
2019-02-09T00:12:30.947Z,69.30
2019-02-09T00:13:30.951Z,69.51
2019-02-09T00:14:30.928Z,69.51
2019-02-09T00:15:30.935Z,69.20
2019-02-09T00:16:30.901Z,69.09
2019-02-09T00:17:30.892Z,69.30
2019-02-09T00:18:30.884Z,69.20
2019-02-09T00:19:30.875Z,69.30
2019-02-09T00:20:30.874Z,69.30
2019-02-09T00:21:30.856Z,69.20
2019-02-09T00:22:30.840Z,68.96
2019-02-09T00:23:30.882Z,68.44
2019-02-09T00:24:30.817Z,68.68
2019-02-09T00:25:30.816Z,68.54
2019-02-09T00:26:30.796Z,68.44
2019-02-09T00:27:30.799Z,68.78
2019-02-09T00:28:30.777Z,68.68
2019-02-09T00:29:30.766Z,69.09
2019-02-09T00:30:30.769Z,68.48
2019-02-09T00:31:30.747Z,68.78
2019-02-09T00:32:30.735Z,68.37
2019-02-09T00:33:30.731Z,68.16
2019-02-09T00:34:30.712Z,68.06
2019-02-09T00:35:30.713Z,68.06
2019-02-09T00:36:30.691Z,67.61
2019-02-09T00:37:30.687Z,68.37
2019-02-09T00:38:30.673Z,67.96
2019-02-09T00:39:30.663Z,67.82
2019-02-09T00:40:30.660Z,67.13
2019-02-09T00:41:30.639Z,67.13
2019-02-09T00:42:30.628Z,67.34
2019-02-09T00:43:30.620Z,67.85
2019-02-09T00:44:30.607Z,67.54
2019-02-09T00:45:30.611Z,67.24
2019-02-09T00:46:30.584Z,67.75
2019-02-09T00:47:30.573Z,67.75
2019-02-09T00:48:30.583Z,67.03
2019-02-09T00:49:30.561Z,67.10
2019-02-09T00:50:30.557Z,67.10
2019-02-09T00:51:30.538Z,67.30
2019-02-09T00:52:30.565Z,67.13
2019-02-09T00:53:30.509Z,67.24
2019-02-09T00:54:30.532Z,66.82
2019-02-09T00:55:31.247Z,66.93
2019-02-09T00:56:30.490Z,67.24
2019-02-09T00:57:30.491Z,67.13
2019-02-09T00:58:30.457Z,67.03
2019-02-09T00:59:30.452Z,66.79
2019-02-09T01:00:31.625Z,66.30
2019-02-09T01:01:30.443Z,66.72
2019-02-09T01:02:30.419Z,66.69
2019-02-09T01:03:30.404Z,66.20
2019-02-09T01:04:30.394Z,65.97
2019-02-09T01:05:30.397Z,66.07
2019-02-09T01:06:30.399Z,65.97
2019-02-09T01:07:30.366Z,65.55
2019-02-09T01:08:30.363Z,65.45
2019-02-09T01:09:30.341Z,66.07
2019-02-09T01:10:30.369Z,66.17
2019-02-09T01:11:30.323Z,65.48
2019-02-09T01:12:30.313Z,65.86
2019-02-09T01:13:30.302Z,65.97
2019-02-09T01:14:30.289Z,65.66
2019-02-09T01:15:30.285Z,65.86
2019-02-09T01:16:30.291Z,65.55
2019-02-09T01:17:30.258Z,65.66
2019-02-09T01:18:30.250Z,65.55
2019-02-09T01:19:30.239Z,65.55
2019-02-09T01:20:30.229Z,65.58
2019-02-09T01:21:30.226Z,64.93
2019-02-09T01:22:30.204Z,65.03
2019-02-09T01:23:30.194Z,65.76
2019-02-09T01:24:30.187Z,64.93
2019-02-09T01:25:30.173Z,64.93
2019-02-09T01:26:30.179Z,65.55
2019-02-09T01:27:30.171Z,65.27
2019-02-09T01:28:30.144Z,64.96
2019-02-09T01:29:30.133Z,65.14
2019-02-09T01:30:30.121Z,65.03
2019-02-09T01:31:30.125Z,65.24
2019-02-09T01:32:30.098Z,65.06
2019-02-09T01:33:30.088Z,65.27
2019-02-09T01:34:30.087Z,64.96
2019-02-09T01:35:30.072Z,64.96
2019-02-09T01:36:30.071Z,64.76
2019-02-09T01:37:30.047Z,64.65
2019-02-09T01:38:30.035Z,65.17
2019-02-09T01:39:30.024Z,64.96
2019-02-09T01:40:30.013Z,64.96
2019-02-09T01:41:30.017Z,64.73
2019-02-09T01:42:29.994Z,64.65
2019-02-09T01:43:29.985Z,64.96
2019-02-09T01:44:29.971Z,64.76
2019-02-09T01:45:29.961Z,64.76
2019-02-09T01:46:29.962Z,64.45
2019-02-09T01:47:29.943Z,65.17
2019-02-09T01:48:29.933Z,65.17
2019-02-09T01:49:29.919Z,64.86
2019-02-09T01:50:29.912Z,64.86
2019-02-09T01:51:29.910Z,64.55
2019-02-09T01:52:29.896Z,64.86
2019-02-09T01:53:29.876Z,65.17
2019-02-09T01:54:29.871Z,65.06
2019-02-09T01:55:29.858Z,65.17
2019-02-09T01:56:29.862Z,65.14
2019-02-09T01:57:29.839Z,65.17
2019-02-09T01:58:29.831Z,64.76
2019-02-09T01:59:29.816Z,64.55
2019-02-09T02:00:29.804Z,65.58
2019-02-09T02:01:29.803Z,65.48
2019-02-09T02:02:29.783Z,65.17
2019-02-09T02:03:29.774Z,65.17
2019-02-09T02:04:29.764Z,65.17
2019-02-09T02:05:29.750Z,65.30
2019-02-09T02:06:29.766Z,65.27
2019-02-09T02:07:29.729Z,64.96
2019-02-09T02:08:29.720Z,65.06
2019-02-09T02:09:29.708Z,65.27
2019-02-09T02:10:29.707Z,65.17
2019-02-09T02:11:29.707Z,64.96
2019-02-09T02:12:29.676Z,65.27
2019-02-09T02:13:29.666Z,65.06
2019-02-09T02:14:29.659Z,65.79
2019-02-09T02:15:29.646Z,65.92
2019-02-09T02:16:29.649Z,65.92
2019-02-09T02:17:29.625Z,65.82
2019-02-09T02:18:29.615Z,65.82
2019-02-09T02:19:29.606Z,65.72
2019-02-09T02:20:29.591Z,65.61
2019-02-09T02:21:29.592Z,65.82
2019-02-09T02:22:29.571Z,65.61
2019-02-09T02:23:29.564Z,65.82
2019-02-09T02:24:29.551Z,65.20
2019-02-09T02:25:29.542Z,65.20
2019-02-09T02:26:29.542Z,64.89
2019-02-09T02:27:29.522Z,64.65
2019-02-09T02:28:29.507Z,65.06
2019-02-09T02:29:29.501Z,64.89
2019-02-09T02:30:29.491Z,64.86
2019-02-09T02:31:29.489Z,65.20
2019-02-09T02:32:29.468Z,64.96
2019-02-09T02:33:29.453Z,65.06
2019-02-09T02:34:29.454Z,65.27
2019-02-09T02:35:29.437Z,65.06
2019-02-09T02:36:29.435Z,65.27
2019-02-09T02:37:29.414Z,64.86
2019-02-09T02:38:29.405Z,65.17
2019-02-09T02:39:29.393Z,65.17
2019-02-09T02:40:29.416Z,64.89
2019-02-09T02:41:29.392Z,64.55
2019-02-09T02:42:29.362Z,64.65
2019-02-09T02:43:29.350Z,64.96
2019-02-09T02:44:29.343Z,64.65
2019-02-09T02:45:29.331Z,64.65
2019-02-09T02:46:29.338Z,63.93
2019-02-09T02:47:29.309Z,63.82
2019-02-09T02:48:29.302Z,63.93
2019-02-09T02:49:29.284Z,64.34
2019-02-09T02:50:29.278Z,64.14
2019-02-09T02:51:29.281Z,63.42
2019-02-09T02:52:29.258Z,63.62
2019-02-09T02:53:29.245Z,63.42
2019-02-09T02:54:29.235Z,63.51
2019-02-09T02:55:29.222Z,63.31
2019-02-09T02:56:29.234Z,63.00
2019-02-09T02:57:29.215Z,62.79
2019-02-09T02:58:29.192Z,62.17
2019-02-09T02:59:29.180Z,62.48
2019-02-09T03:00:32.454Z,62.17
2019-02-09T03:01:29.168Z,62.17
2019-02-09T03:02:29.149Z,62.90
2019-02-09T03:03:29.139Z,62.79
2019-02-09T03:04:29.129Z,62.76
2019-02-09T03:05:29.136Z,62.04
2019-02-09T03:06:29.127Z,62.07
2019-02-09T03:07:29.095Z,61.94
2019-02-09T03:08:29.088Z,62.25
2019-02-09T03:09:29.079Z,62.55
2019-02-09T03:10:29.067Z,62.04
2019-02-09T03:11:29.070Z,62.35
2019-02-09T03:12:29.042Z,61.87
2019-02-09T03:13:29.036Z,61.87
2019-02-09T03:14:29.022Z,61.55
2019-02-09T03:15:29.016Z,61.76
2019-02-09T03:16:29.010Z,61.76
2019-02-09T03:17:29.000Z,61.55
2019-02-09T03:18:28.983Z,61.52
2019-02-09T03:19:28.969Z,61.01
2019-02-09T03:20:28.966Z,61.14
2019-02-09T03:21:28.966Z,61.52
2019-02-09T03:22:28.940Z,60.39
2019-02-09T03:23:28.931Z,61.32
2019-02-09T03:24:28.916Z,61.01
2019-02-09T03:25:28.911Z,60.91
2019-02-09T03:26:28.906Z,61.01
2019-02-09T03:27:28.887Z,60.80
2019-02-09T03:28:28.872Z,60.91
2019-02-09T03:29:28.871Z,60.91
2019-02-09T03:30:28.875Z,59.90
2019-02-09T03:31:28.854Z,60.39
2019-02-09T03:32:28.832Z,59.77
2019-02-09T03:33:28.820Z,60.18
2019-02-09T03:34:28.818Z,59.88
2019-02-09T03:35:28.802Z,59.88
2019-02-09T03:36:28.798Z,59.88
2019-02-09T03:37:28.778Z,59.98
2019-02-09T03:38:28.767Z,60.18
2019-02-09T03:39:28.756Z,60.39
2019-02-09T03:40:28.777Z,60.36
2019-02-09T03:41:28.749Z,59.95
2019-02-09T03:42:28.725Z,59.53
2019-02-09T03:43:28.714Z,59.74
2019-02-09T03:44:28.707Z,59.53
2019-02-09T03:45:28.697Z,59.33
2019-02-09T03:46:28.683Z,59.53
2019-02-09T03:47:28.683Z,59.44
2019-02-09T03:48:28.669Z,59.20
2019-02-09T03:49:28.651Z,59.44
2019-02-09T03:50:28.654Z,59.33
2019-02-09T03:51:28.628Z,59.09
2019-02-09T03:52:28.631Z,58.79
2019-02-09T03:53:28.611Z,59.09
2019-02-09T03:54:28.598Z,58.99
2019-02-09T03:55:28.589Z,58.69
2019-02-09T03:56:29.525Z,58.79
2019-02-09T03:57:28.582Z,58.89
2019-02-09T03:58:28.558Z,58.17
2019-02-09T03:59:28.549Z,58.58
2019-02-09T04:00:28.540Z,58.17
2019-02-09T04:01:28.524Z,57.76
2019-02-09T04:02:28.526Z,58.06
2019-02-09T04:03:28.507Z,58.04
2019-02-09T04:04:28.494Z,57.73
2019-02-09T04:05:28.482Z,57.73
2019-02-09T04:06:28.468Z,58.04
2019-02-09T04:07:28.478Z,57.62
2019-02-09T04:08:28.450Z,57.83
2019-02-09T04:09:28.443Z,58.04
2019-02-09T04:10:28.428Z,57.42
2019-02-09T04:11:28.421Z,57.42
2019-02-09T04:12:28.420Z,57.73
2019-02-09T04:13:28.395Z,57.32
2019-02-09T04:14:28.386Z,57.42
2019-02-09T04:15:28.374Z,57.21
2019-02-09T04:16:28.365Z,57.73
2019-02-09T04:17:28.364Z,57.11
2019-02-09T04:18:28.341Z,57.39
2019-02-09T04:19:28.333Z,57.11
2019-02-09T04:20:28.326Z,57.21
2019-02-09T04:21:28.312Z,57.09
2019-02-09T04:22:28.317Z,56.90
2019-02-09T04:23:28.288Z,57.11
2019-02-09T04:24:28.275Z,56.98
2019-02-09T04:25:28.270Z,57.60
2019-02-09T04:26:28.256Z,57.09
2019-02-09T04:27:28.260Z,56.88
2019-02-09T04:28:28.233Z,57.18
2019-02-09T04:29:28.221Z,56.88
2019-02-09T04:30:28.209Z,56.67
2019-02-09T04:31:28.201Z,56.90
2019-02-09T04:32:28.202Z,57.32
2019-02-09T04:33:28.177Z,57.62
2019-02-09T04:34:28.170Z,57.50
2019-02-09T04:35:28.157Z,56.57
2019-02-09T04:36:28.146Z,57.29
2019-02-09T04:37:28.148Z,56.90
2019-02-09T04:38:28.137Z,56.88
2019-02-09T04:39:28.133Z,57.18
2019-02-09T04:40:28.103Z,57.39
2019-02-09T04:41:28.098Z,57.18
2019-02-09T04:42:28.094Z,56.98
2019-02-09T04:43:28.075Z,56.88
2019-02-09T04:44:28.061Z,56.57
2019-02-09T04:45:28.050Z,56.77
2019-02-09T04:46:28.037Z,56.98
2019-02-09T04:47:28.039Z,56.77
2019-02-09T04:48:28.019Z,56.88
2019-02-09T04:49:28.030Z,56.98
2019-02-09T04:50:27.996Z,56.88
2019-02-09T04:51:27.987Z,56.77
2019-02-09T04:52:27.987Z,57.18
2019-02-09T04:53:27.968Z,56.67
2019-02-09T04:54:27.959Z,56.67
2019-02-09T04:55:27.942Z,56.77
2019-02-09T04:56:27.931Z,56.77
2019-02-09T04:57:27.935Z,56.67
2019-02-09T04:58:27.910Z,56.75
2019-02-09T04:59:27.901Z,56.57
2019-02-09T05:00:27.925Z,56.85
2019-02-09T05:01:27.880Z,56.77
2019-02-09T05:02:27.878Z,56.88
2019-02-09T05:03:27.855Z,56.77
2019-02-09T05:04:27.850Z,56.98
2019-02-09T05:05:27.837Z,56.95
2019-02-09T05:06:27.833Z,56.67
2019-02-09T05:07:27.823Z,56.88
2019-02-09T05:08:27.800Z,56.88
2019-02-09T05:09:27.791Z,57.06
2019-02-09T05:10:27.804Z,57.50
2019-02-09T05:11:27.768Z,57.06
2019-02-09T05:12:27.800Z,57.60
2019-02-09T05:13:27.751Z,56.77
2019-02-09T05:14:27.736Z,57.29
2019-02-09T05:15:27.728Z,57.47
2019-02-09T05:16:27.715Z,57.26
2019-02-09T05:17:27.718Z,57.18
2019-02-09T05:18:27.715Z,56.85
2019-02-09T05:19:27.690Z,56.85
2019-02-09T05:20:27.677Z,57.06
2019-02-09T05:21:27.684Z,56.85
2019-02-09T05:22:27.664Z,56.98
2019-02-09T05:23:27.638Z,56.95
2019-02-09T05:24:27.632Z,57.18
2019-02-09T05:25:27.621Z,57.26
2019-02-09T05:26:27.612Z,56.85
2019-02-09T05:27:27.621Z,56.67
2019-02-09T05:28:27.594Z,57.50
2019-02-09T05:29:27.575Z,57.26
2019-02-09T05:30:27.567Z,57.57
2019-02-09T05:31:27.552Z,57.78
2019-02-09T05:32:27.560Z,57.88
2019-02-09T05:33:27.530Z,57.70
2019-02-09T05:34:27.519Z,57.91
2019-02-09T05:35:27.521Z,57.29
2019-02-09T05:36:27.529Z,57.29
2019-02-09T05:37:28.244Z,57.88
2019-02-09T05:38:27.478Z,57.26
2019-02-09T05:39:27.468Z,57.57
2019-02-09T05:40:27.455Z,58.01
2019-02-09T05:41:27.449Z,57.98
2019-02-09T05:42:27.452Z,57.81
2019-02-09T05:43:27.423Z,57.70
2019-02-09T05:44:27.409Z,57.88
2019-02-09T05:45:27.403Z,58.40
2019-02-09T05:46:27.423Z,57.98
2019-02-09T05:47:27.396Z,57.91
2019-02-09T05:48:27.377Z,57.47
2019-02-09T05:49:27.356Z,58.09
2019-02-09T05:50:27.348Z,57.88
2019-02-09T05:51:27.338Z,58.29
2019-02-09T05:52:27.356Z,58.32
2019-02-09T05:53:27.316Z,58.53
2019-02-09T05:54:27.313Z,59.14
2019-02-09T05:55:27.305Z,59.01
2019-02-09T05:56:27.296Z,59.12
2019-02-09T05:57:27.274Z,59.25
2019-02-09T05:58:27.270Z,59.74
2019-02-09T05:59:27.255Z,59.25
2019-02-09T06:00:27.256Z,59.42
2019-02-09T06:01:32.076Z,59.77
2019-02-09T06:02:28.220Z,59.56
2019-02-09T06:03:27.288Z,59.35
2019-02-09T06:04:27.200Z,59.35
2019-02-09T06:05:27.195Z,60.05
2019-02-09T06:06:27.203Z,59.63
2019-02-09T06:07:27.193Z,59.56
2019-02-09T06:08:27.307Z,60.17
2019-02-09T06:09:27.166Z,60.17
2019-02-09T06:10:27.144Z,60.07
2019-02-09T06:11:27.141Z,60.49
2019-02-09T06:12:27.202Z,59.84
2019-02-09T06:13:27.110Z,60.69
2019-02-09T06:14:27.088Z,61.61
2019-02-09T06:15:27.076Z,62.03
2019-02-09T06:16:27.064Z,61.82
2019-02-09T06:17:27.054Z,61.93
2019-02-09T06:18:27.056Z,61.82
2019-02-09T06:19:27.032Z,63.47
2019-02-09T06:20:27.022Z,63.99
2019-02-09T06:21:27.015Z,64.09
2019-02-09T06:22:27.008Z,64.61
2019-02-09T06:23:26.999Z,64.61
2019-02-09T06:24:26.978Z,65.02
2019-02-09T06:25:27.066Z,64.92
2019-02-09T06:26:26.956Z,64.81
2019-02-09T06:27:26.947Z,65.53
2019-02-09T06:28:26.950Z,65.74
2019-02-09T06:29:26.924Z,65.98
2019-02-09T06:30:26.912Z,66.08
2019-02-09T06:31:26.900Z,67.32
2019-02-09T06:32:26.892Z,66.91
2019-02-09T06:33:26.895Z,67.52
2019-02-09T06:34:26.868Z,67.52
2019-02-09T06:35:26.875Z,67.63
2019-02-09T06:36:26.847Z,68.04
2019-02-09T06:37:26.837Z,68.04
2019-02-09T06:38:26.838Z,68.24
2019-02-09T06:39:26.823Z,68.04
2019-02-09T06:40:26.806Z,68.66
2019-02-09T06:41:26.806Z,68.55
2019-02-09T06:42:26.780Z,68.66
2019-02-09T06:43:26.782Z,68.96
2019-02-09T06:44:26.761Z,68.96
2019-02-09T06:45:26.748Z,69.27
2019-02-09T06:46:26.737Z,69.27
2019-02-09T06:47:26.784Z,68.96
2019-02-09T06:48:26.731Z,69.27
2019-02-09T06:49:26.706Z,69.41
2019-02-09T06:50:26.695Z,69.20
2019-02-09T06:51:26.684Z,68.96
2019-02-09T06:52:26.677Z,69.10
2019-02-09T06:53:26.674Z,69.17
2019-02-09T06:54:26.672Z,69.07
2019-02-09T06:55:26.644Z,69.10
2019-02-09T06:56:26.631Z,69.41
2019-02-09T06:57:26.620Z,69.20
2019-02-09T06:58:26.619Z,69.10
2019-02-09T06:59:26.605Z,69.79
2019-02-09T07:00:26.590Z,69.82
2019-02-09T07:01:26.577Z,69.17
2019-02-09T07:02:26.563Z,68.86
2019-02-09T07:03:26.555Z,69.48
2019-02-09T07:04:26.566Z,69.69
2019-02-09T07:05:26.539Z,70.20
2019-02-09T07:06:26.537Z,70.10
2019-02-09T07:07:26.512Z,70.41
2019-02-09T07:08:27.255Z,70.92
2019-02-09T07:09:26.523Z,70.72
2019-02-09T07:10:26.510Z,71.13
2019-02-09T07:11:26.482Z,71.03
2019-02-09T07:12:26.496Z,71.34
2019-02-09T07:13:26.452Z,71.44
2019-02-09T07:14:26.446Z,71.44
2019-02-09T07:15:26.427Z,71.58
2019-02-09T07:16:26.415Z,71.75
2019-02-09T07:17:26.423Z,71.68
2019-02-09T07:18:26.397Z,71.47
2019-02-09T07:19:26.400Z,71.47
2019-02-09T07:20:26.372Z,71.78
2019-02-09T07:21:26.361Z,71.47
2019-02-09T07:22:26.350Z,71.58
2019-02-09T07:23:26.338Z,71.47
2019-02-09T07:24:26.343Z,71.64
2019-02-09T07:25:26.321Z,71.37
2019-02-09T07:26:26.305Z,71.44
2019-02-09T07:27:26.295Z,71.58
2019-02-09T07:28:26.289Z,71.47
2019-02-09T07:29:26.286Z,71.75
2019-02-09T07:30:26.263Z,72.71
2019-02-09T07:31:26.253Z,72.27
2019-02-09T07:32:26.238Z,72.06
2019-02-09T07:33:26.234Z,72.37
2019-02-09T07:34:26.232Z,72.27
2019-02-09T07:35:26.208Z,72.67
2019-02-09T07:36:26.201Z,73.22
2019-02-09T07:37:26.185Z,72.78
2019-02-09T07:38:26.176Z,72.99
2019-02-09T07:39:26.176Z,73.81
2019-02-09T07:40:26.158Z,73.71
2019-02-09T07:41:26.142Z,73.71
2019-02-09T07:42:26.131Z,73.81
2019-02-09T07:43:26.124Z,73.91
2019-02-09T07:44:26.139Z,73.91
2019-02-09T07:45:26.099Z,74.12
2019-02-09T07:46:26.097Z,74.33
2019-02-09T07:47:26.079Z,74.53
2019-02-09T07:48:26.066Z,74.95
2019-02-09T07:49:26.100Z,75.26
2019-02-09T07:50:26.057Z,74.95
2019-02-09T07:51:26.035Z,75.15
2019-02-09T07:52:26.027Z,75.15
2019-02-09T07:53:26.068Z,75.15
2019-02-09T07:54:26.015Z,75.56
2019-02-09T07:55:25.992Z,75.77
2019-02-09T07:56:25.985Z,75.87
2019-02-09T07:57:25.971Z,75.84
2019-02-09T07:58:26.201Z,75.98
2019-02-09T07:59:25.964Z,75.87
2019-02-09T08:00:25.938Z,76.49
2019-02-09T08:01:25.929Z,76.18
2019-02-09T08:02:25.918Z,76.18
2019-02-09T08:03:25.958Z,76.59
2019-02-09T08:04:25.908Z,76.90
2019-02-09T08:05:25.883Z,76.90
2019-02-09T08:06:25.875Z,76.59
2019-02-09T08:07:25.862Z,77.11
2019-02-09T08:08:25.853Z,77.11
2019-02-09T08:09:25.852Z,77.01
2019-02-09T08:10:25.830Z,77.11
2019-02-09T08:11:25.820Z,77.31
2019-02-09T08:12:25.809Z,77.42
2019-02-09T08:13:25.808Z,77.83
2019-02-09T08:14:25.805Z,77.59
2019-02-09T08:15:25.780Z,77.31
2019-02-09T08:16:25.766Z,77.83
2019-02-09T08:17:25.758Z,78.14
2019-02-09T08:18:25.745Z,78.04
2019-02-09T08:19:25.748Z,78.86
2019-02-09T08:20:25.724Z,78.76
2019-02-09T08:21:25.713Z,78.55
2019-02-09T08:22:25.700Z,78.86
2019-02-09T08:23:25.691Z,78.97
2019-02-09T08:24:25.697Z,78.55
2019-02-09T08:25:25.673Z,78.97
2019-02-09T08:26:25.659Z,78.62
2019-02-09T08:27:25.649Z,78.83
2019-02-09T08:28:25.639Z,78.83
2019-02-09T08:29:25.636Z,78.41
2019-02-09T08:30:25.618Z,77.69
2019-02-09T08:31:25.615Z,77.86
2019-02-09T08:32:25.600Z,77.86
2019-02-09T08:33:25.591Z,77.14
2019-02-09T08:34:25.586Z,77.86
2019-02-09T08:35:25.565Z,77.76
2019-02-09T08:36:25.558Z,77.93
2019-02-09T08:37:25.541Z,77.21
2019-02-09T08:38:25.535Z,77.51
2019-02-09T08:39:25.533Z,77.11
2019-02-09T08:40:25.510Z,77.31
2019-02-09T08:41:25.498Z,76.56
2019-02-09T08:42:25.497Z,76.14
2019-02-09T08:43:25.480Z,76.49
2019-02-09T08:44:25.480Z,76.56
2019-02-09T08:45:25.458Z,76.14
2019-02-09T08:46:25.446Z,76.39
2019-02-09T08:47:25.436Z,75.67
2019-02-09T08:48:25.427Z,75.84
2019-02-09T08:49:25.420Z,76.07
2019-02-09T08:50:25.416Z,76.35
2019-02-09T08:51:25.410Z,76.45
2019-02-09T08:52:25.383Z,76.25
2019-02-09T08:53:25.374Z,75.94
2019-02-09T08:54:25.361Z,76.35
2019-02-09T08:55:25.365Z,76.35
2019-02-09T08:56:25.356Z,76.79
2019-02-09T08:57:25.332Z,76.04
2019-02-09T08:58:25.324Z,76.18
2019-02-09T08:59:25.308Z,76.07
2019-02-09T09:00:25.316Z,75.52
2019-02-09T09:01:25.288Z,75.73
2019-02-09T09:02:25.276Z,75.94
2019-02-09T09:03:25.268Z,76.04
2019-02-09T09:04:25.263Z,75.84
2019-02-09T09:05:25.262Z,75.29
2019-02-09T09:06:25.240Z,73.64
2019-02-09T09:07:25.226Z,70.64
2019-02-09T09:08:25.224Z,67.74
2019-02-09T09:09:25.203Z,66.35
2019-02-09T09:10:25.203Z,65.09
2019-02-09T09:11:25.184Z,63.43
2019-02-09T09:12:25.177Z,63.73
2019-02-09T09:13:25.159Z,64.10
2019-02-09T09:14:25.155Z,64.61
2019-02-09T09:15:25.150Z,64.33
2019-02-09T09:16:25.129Z,64.30
2019-02-09T09:17:25.122Z,64.17
2019-02-09T09:18:25.105Z,64.45
2019-02-09T09:19:25.749Z,63.73
2019-02-09T09:20:25.095Z,61.66
2019-02-09T09:21:25.078Z,61.40
2019-02-09T09:22:25.061Z,60.55
2019-02-09T09:23:25.054Z,58.76
2019-02-09T09:24:25.046Z,58.23
2019-02-09T09:25:25.052Z,58.40
2019-02-09T09:26:25.024Z,58.13
2019-02-09T09:27:25.008Z,57.92
2019-02-09T09:28:24.997Z,57.82
2019-02-09T09:29:24.986Z,57.21
2019-02-09T09:30:24.989Z,57.08
2019-02-09T09:31:24.963Z,56.70
2019-02-09T09:32:28.769Z,56.90
2019-02-09T09:33:24.943Z,56.68
2019-02-09T09:34:24.932Z,56.68
2019-02-09T09:35:24.950Z,56.90
2019-02-09T09:36:24.923Z,58.39
2019-02-09T09:37:24.899Z,59.12
2019-02-09T09:38:24.891Z,59.23
2019-02-09T09:39:24.878Z,60.30
2019-02-09T09:40:24.878Z,60.92
2019-02-09T09:41:24.862Z,61.43
2019-02-09T09:42:24.859Z,60.99
2019-02-09T09:43:24.839Z,60.92
2019-02-09T09:44:24.830Z,61.25
2019-02-09T09:45:24.830Z,62.30
2019-02-09T09:46:24.806Z,63.25
2019-02-09T09:47:24.805Z,63.79
2019-02-09T09:48:24.790Z,63.92
2019-02-09T09:49:24.772Z,63.79
2019-02-09T09:50:24.772Z,63.07
2019-02-09T09:51:24.754Z,62.92
2019-02-09T09:52:24.743Z,61.43
2019-02-09T09:53:24.739Z,59.71
2019-02-09T09:54:24.718Z,59.41
2019-02-09T09:55:24.728Z,58.64
2019-02-09T09:56:24.696Z,57.21
2019-02-09T09:57:24.696Z,57.98
2019-02-09T09:58:24.677Z,58.82
2019-02-09T09:59:24.668Z,59.77
2019-02-09T10:00:24.667Z,60.41
2019-02-09T10:01:24.699Z,61.05
2019-02-09T10:02:24.643Z,60.82
2019-02-09T10:03:24.623Z,60.94
2019-02-09T10:04:24.611Z,60.82
2019-02-09T10:05:24.614Z,59.69
2019-02-09T10:06:24.594Z,59.26
2019-02-09T10:07:24.585Z,59.66
2019-02-09T10:08:24.586Z,60.28
2019-02-09T10:09:24.559Z,59.12
2019-02-09T10:10:24.557Z,59.53
2019-02-09T10:11:24.536Z,59.53
2019-02-09T10:12:24.526Z,59.33
2019-02-09T10:13:24.518Z,59.56
2019-02-09T10:14:24.514Z,59.46
2019-02-09T10:15:24.522Z,59.23
2019-02-09T10:16:24.490Z,59.33
2019-02-09T10:17:24.471Z,59.43
2019-02-09T10:18:24.495Z,59.46
2019-02-09T10:19:24.450Z,59.46
2019-02-09T10:20:24.450Z,59.26
2019-02-09T10:21:25.302Z,59.26
2019-02-09T10:22:24.452Z,59.33
2019-02-09T10:23:24.438Z,58.82
2019-02-09T10:24:24.398Z,59.03
2019-02-09T10:25:24.405Z,58.64
2019-02-09T10:26:24.383Z,58.95
2019-02-09T10:27:24.390Z,59.56
2019-02-09T10:28:24.358Z,58.95
2019-02-09T10:29:24.342Z,59.36
2019-02-09T10:30:24.398Z,59.59
2019-02-09T10:31:24.346Z,59.05
2019-02-09T10:32:24.316Z,59.56
2019-02-09T10:33:24.298Z,59.26
2019-02-09T10:34:24.298Z,59.26
2019-02-09T10:35:24.305Z,59.53
2019-02-09T10:36:24.291Z,58.92
2019-02-09T10:37:24.256Z,58.64
2019-02-09T10:38:24.250Z,58.03
2019-02-09T10:39:24.234Z,58.64
2019-02-09T10:40:24.226Z,58.54
2019-02-09T10:41:24.226Z,58.54
2019-02-09T10:42:24.210Z,58.85
2019-02-09T10:43:24.196Z,58.54
2019-02-09T10:44:24.182Z,58.34
2019-02-09T10:45:24.174Z,58.57
2019-02-09T10:46:24.177Z,58.57
2019-02-09T10:47:24.151Z,58.50
2019-02-09T10:48:24.146Z,59.00
2019-02-09T10:49:24.133Z,59.11
2019-02-09T10:50:24.120Z,59.41
2019-02-09T10:51:24.116Z,59.44
2019-02-09T10:52:24.104Z,59.44
2019-02-09T10:53:24.083Z,59.44
2019-02-09T10:54:24.075Z,59.64
2019-02-09T10:55:24.064Z,59.23
2019-02-09T10:56:24.065Z,58.83
2019-02-09T10:57:24.045Z,58.52
2019-02-09T10:58:24.031Z,58.73
2019-02-09T10:59:24.021Z,58.73
2019-02-09T11:00:24.011Z,58.32
2019-02-09T11:01:24.010Z,58.83
2019-02-09T11:02:24.002Z,58.83
2019-02-09T11:03:23.982Z,59.03
2019-02-09T11:04:23.964Z,58.42
2019-02-09T11:05:23.957Z,58.11
2019-02-09T11:06:23.955Z,58.22
2019-02-09T11:07:23.934Z,57.17
2019-02-09T11:08:23.927Z,58.09
2019-02-09T11:09:23.915Z,57.37
2019-02-09T11:10:23.901Z,57.17
2019-02-09T11:11:23.909Z,56.86
2019-02-09T11:12:23.889Z,56.35
2019-02-09T11:13:23.878Z,55.74
2019-02-09T11:14:23.899Z,55.63
2019-02-09T11:15:23.871Z,55.84
2019-02-09T11:16:23.847Z,55.23
2019-02-09T11:17:23.869Z,55.23
2019-02-09T11:18:23.816Z,55.54
2019-02-09T11:19:23.805Z,55.54
2019-02-09T11:20:23.804Z,55.87
2019-02-09T11:21:23.799Z,56.15
2019-02-09T11:22:23.774Z,56.27
2019-02-09T11:23:23.761Z,56.07
2019-02-09T11:24:23.778Z,55.76
2019-02-09T11:25:23.748Z,55.36
2019-02-09T11:26:23.745Z,55.97
2019-02-09T11:27:23.723Z,55.74
2019-02-09T11:28:23.712Z,56.07
2019-02-09T11:29:23.729Z,55.23
2019-02-09T11:30:23.694Z,55.54
2019-02-09T11:31:23.697Z,54.92
2019-02-09T11:32:23.671Z,55.74
2019-02-09T11:33:23.667Z,55.63
2019-02-09T11:34:23.644Z,55.13
2019-02-09T11:35:23.821Z,54.51
2019-02-09T11:36:23.653Z,54.11
2019-02-09T11:37:23.612Z,53.90
2019-02-09T11:38:23.610Z,54.72
2019-02-09T11:39:23.593Z,55.02
2019-02-09T11:40:23.585Z,53.72
2019-02-09T11:41:23.585Z,54.54
2019-02-09T11:42:23.565Z,54.00
2019-02-09T11:43:23.551Z,54.44
2019-02-09T11:44:23.538Z,54.23
2019-02-09T11:45:23.544Z,54.33
2019-02-09T11:46:23.529Z,54.41
2019-02-09T11:47:23.529Z,54.72
2019-02-09T11:48:23.545Z,54.00
2019-02-09T11:49:23.493Z,54.11
2019-02-09T11:50:23.476Z,53.70
2019-02-09T11:51:23.478Z,54.00
2019-02-09T11:52:23.459Z,54.33
2019-02-09T11:53:23.454Z,54.21
2019-02-09T11:54:23.437Z,54.03
2019-02-09T11:55:23.421Z,54.03
2019-02-09T11:56:23.425Z,54.13
2019-02-09T11:57:23.399Z,54.31
2019-02-09T11:58:23.390Z,54.31
2019-02-09T11:59:23.378Z,54.11
2019-02-09T12:00:23.370Z,53.67
2019-02-09T12:01:23.375Z,53.77
2019-02-09T12:02:23.352Z,53.34
2019-02-09T12:03:23.336Z,53.36
2019-02-09T12:04:23.324Z,53.36
2019-02-09T12:05:23.312Z,52.93
2019-02-09T12:06:23.322Z,52.01
2019-02-09T12:07:24.012Z,52.83
2019-02-09T12:08:23.344Z,51.91
2019-02-09T12:09:23.274Z,52.22
2019-02-09T12:10:23.259Z,52.53
2019-02-09T12:11:23.262Z,52.45
2019-02-09T12:12:23.243Z,52.75
2019-02-09T12:13:23.230Z,52.55
2019-02-09T12:14:23.215Z,53.57
2019-02-09T12:15:23.210Z,54.08
2019-02-09T12:16:23.266Z,53.98
2019-02-09T12:17:23.187Z,52.88
2019-02-09T12:18:23.183Z,52.78
2019-02-09T12:19:23.163Z,52.47
2019-02-09T12:20:23.161Z,53.49
2019-02-09T12:21:23.145Z,53.80
2019-02-09T12:22:23.153Z,53.80
2019-02-09T12:23:23.171Z,54.31
2019-02-09T12:24:23.111Z,54.61
2019-02-09T12:25:23.096Z,55.33
2019-02-09T12:26:23.090Z,55.05
2019-02-09T12:27:23.090Z,54.85
2019-02-09T12:28:23.070Z,55.76
2019-02-09T12:29:23.056Z,56.27
2019-02-09T12:30:23.058Z,56.68
2019-02-09T12:31:23.034Z,57.09
2019-02-09T12:32:23.033Z,58.55
2019-02-09T12:33:23.557Z,59.95
2019-02-09T12:34:23.014Z,60.49
2019-02-09T12:35:23.013Z,61.18
2019-02-09T12:36:22.989Z,62.92
2019-02-09T12:37:22.987Z,63.12
2019-02-09T12:38:22.964Z,64.14
2019-02-09T12:39:22.949Z,64.24
2019-02-09T12:40:22.947Z,64.14
2019-02-09T12:41:22.930Z,64.55
2019-02-09T12:42:22.931Z,64.14
2019-02-09T12:43:22.909Z,64.24
2019-02-09T12:44:22.897Z,64.04
2019-02-09T12:45:22.884Z,63.83
2019-02-09T12:46:22.874Z,63.02
2019-02-09T12:47:22.880Z,63.63
2019-02-09T12:48:22.859Z,62.92
2019-02-09T12:49:22.848Z,63.32
2019-02-09T12:50:22.901Z,62.20
2019-02-09T12:51:22.824Z,61.25
2019-02-09T12:52:22.824Z,62.88